Airfield :
LOGIN :

Register | Disclaimer

   EN    FR    IT 

 










Legend :    VFR   Marginal VFR   IFR   Intensive IFR   Very Intensive IFR
Visi :
Ceiling :
>= 8 km
>= 3000ft
5 to 8 km
1000 to 3000 ft
1500m to 5 km
500 to 1000 ft
800 to 1500m
200 to 500 ft
< 800m
< 200 ft
Symbols :   Thunderstorms  Fog  Heavy snow  Heavy precipitations  Wind > 20 kt
SIGMETs :     Misc.  Thunderstorms  Icing  Turbulence  Mountain Waves  Volcanic Ashes






- Airport Elevation : 479 ft
- IATA code : DOL


LFRG - Deauville

CURRENT METAR :
  • 230700Z AUTO 06004KT 020V100 7000 NSC 10/10 Q1014 TEMPO 4000 -RADZ BKN005

EXPIRED METARs :
  • 230630Z AUTO 05005KT 010V100 6000 FEW003 SCT058 BKN100 10/10 Q1014 TEMPO 4000 -RADZ BKN005
  • 230600Z AUTO 04006KT 4400 BR OVC002 10/10 Q1014 TEMPO BKN005
  • 230530Z AUTO 04006KT 010V070 4800 -RA BR BKN002 BKN038 OVC100 10/10 Q1015 TEMPO BKN005
  • 230500Z AUTO 04004KT 010V080 3600 -RA BR FEW013 SCT029 BKN052 10/10 Q1015
  • 230430Z AUTO 06004KT 020V100 4800 -RA BR FEW009 SCT056 OVC066 10/10 Q1016

TAF AMD TAF LFRG
Valid from the 23 at 06:00 until the 23 at 15:00 UTC


230631Z 2306/2315 07008KT 8000 SCT015 BKN045
TEMPO 2306/2309 4000 BR BKN002
PROB40
TEMPO 2306/2315 4000 -RADZ BKN005
ATIS : +33 2 31 65 65 36



MET'MAP, your aeronautical weather chart ! - Copyright ORBIFLY December 2007 - Disclaimer

ORBIFLY MET'MAP TEAM :

Programming & Development : Alexandra Zaïnal
Concept & Development : Baudouin d'Aumeries
Co-Development & Prog : Marc-Olivier Méhu
Technical & hardware support : Manuel Goepfert

Contact : metmap@orbifly.com




SOURCES & CREDITS :

   NOAA